Time;durP1;ratioP1;P1;durP2;ratioP2;P2;SDS_P1;SDS_P2;PMS_P1;PMS_P2;Temp;Humidity;BMP_temperature;BMP_pressure;BME280_temperature;BME280_humidity;BME280_pressure;Samples;Min_cycle;Max_cycle;Signal;HPM_P1;HPM_P2
2022/01/26 00:00:08;;;;;;;98.35;34.40;;;;;;;;;;5054087;28;20063;-72
2022/01/26 00:08:04;;;;;;;103.53;36.35;;;4.00;99.90;;;;;;5054295;28;20049;-72
2022/01/26 00:10:30;;;;;;;98.22;34.80;;;;;;;;;;5053910;28;20036;-71
2022/01/26 00:12:56;;;;;;;91.55;33.28;;;;;;;;;;5037346;28;20041;-71
2022/01/26 00:15:22;;;;;;;105.78;35.63;;;;;;;;;;5037767;28;20047;-72
2022/01/26 00:17:50;;;;;;;92.85;35.00;;;;;;;;;;5037728;28;20071;-72
2022/01/26 00:20:23;;;;;;;89.50;34.53;;;;;;;;;;5037183;28;20123;-72
2022/01/26 00:38:47;;;;;;;97.82;36.90;;;4.20;99.90;;;;;;5054130;28;20110;-72
2022/01/26 00:41:21;;;;;;;99.82;34.75;;;3.90;99.90;;;;;;5053346;28;20048;-71
2022/01/26 00:43:55;;;;;;;96.03;35.45;;;4.00;99.90;;;;;;5053911;28;20049;-71
2022/01/26 00:46:22;;;;;;;104.65;35.33;;;;;;;;;;5053960;28;20040;-71
2022/01/26 00:48:49;;;;;;;107.38;36.83;;;;;;;;;;5053615;28;20041;-71
2022/01/26 00:51:17;;;;;;;102.80;36.40;;;;;;;;;;5053414;28;20040;-72
2022/01/26 00:53:47;;;;;;;98.38;34.25;;;;;;;;;;5053941;28;20454;-72
2022/01/26 00:56:13;;;;;;;107.70;37.50;;;3.90;99.90;;;;;;5053812;28;20069;-71
2022/01/26 00:58:40;;;;;;;100.25;36.85;;;;;;;;;;5070290;28;20036;-72
2022/01/26 01:01:06;;;;;;;97.20;34.85;;;;;;;;;;5053539;28;20040;-72
2022/01/26 01:03:36;;;;;;;107.05;34.88;;;3.80;99.90;;;;;;5053570;28;20036;-72
2022/01/26 01:08:55;;;;;;;113.55;35.80;;;;;;;;;;5052139;28;20044;-71
2022/01/26 01:11:21;;;;;;;109.07;38.60;;;;;;;;;;5057321;28;20040;-72
2022/01/26 01:13:48;;;;;;;103.55;37.80;;;4.10;99.90;;;;;;5057728;28;20516;-72
2022/01/26 01:16:19;;;;;;;100.13;37.20;;;3.90;99.90;;;;;;5040826;28;20032;-72
2022/01/26 01:22:03;;;;;;;94.88;37.17;;;;;;;;;;5057501;28;20123;-72
2022/01/26 01:27:44;;;;;;;106.50;38.33;;;3.70;99.90;;;;;;5057546;28;20041;-72
2022/01/26 01:30:01;;;;;;;101.13;35.25;;;4.00;99.90;;;;;;5054986;28;20489;-71
2022/01/26 01:32:38;;;;;;;111.28;36.67;;;;;;;;;;5057025;28;20048;-72
2022/01/26 01:35:08;;;;;;;110.68;37.15;;;;;;;;;;5057231;28;20070;-71
2022/01/26 01:37:34;;;;;;;111.32;38.33;;;;;;;;;;5057121;28;20105;-71
2022/01/26 01:40:00;;;;;;;90.28;33.40;;;;;;;;;;5056784;28;20040;-71
2022/01/26 01:42:26;;;;;;;100.00;36.38;;;3.90;99.90;;;;;;5056851;28;20047;-72
2022/01/26 01:44:51;;;;;;;95.75;34.65;;;3.80;99.90;;;;;;5073611;28;20559;-72
2022/01/26 01:47:17;;;;;;;101.53;37.40;;;;;;;;;;5056976;28;20075;-72
2022/01/26 01:49:43;;;;;;;109.32;37.95;;;3.90;99.90;;;;;;5056572;28;20044;-72
2022/01/26 01:52:14;;;;;;;111.30;36.97;;;;;;;;;;5056773;28;20044;-72
2022/01/26 01:54:43;;;;;;;112.40;37.85;;;3.90;99.90;;;;;;5056912;28;20032;-71
2022/01/26 01:57:09;;;;;;;102.03;36.22;;;;;;;;;;5056864;28;20079;-72
2022/01/26 01:59:36;;;;;;;108.22;37.63;;;;;;;;;;5056580;28;20040;-72
2022/01/26 02:02:02;;;;;;;100.10;36.20;;;3.80;99.90;;;;;;5056991;28;20052;-72
2022/01/26 02:04:29;;;;;;;100.72;38.15;;;;;;;;;;5056917;28;20033;-72
2022/01/26 02:06:55;;;;;;;95.43;36.15;;;;;;;;;;5057109;28;20501;-71
2022/01/26 02:09:21;;;;;;;107.93;36.35;;;;;;;;;;5056403;28;20127;-71
2022/01/26 02:11:54;;;;;;;88.30;35.05;;;;;;;;;;5055840;28;20041;-72
2022/01/26 02:14:29;;;;;;;107.22;39.83;;;;;;;;;;5056537;28;20505;-72
2022/01/26 02:17:16;;;;;;;100.07;37.03;;;3.90;99.90;;;;;;5056670;28;20086;-72
2022/01/26 02:50:23;;;;;;;69.78;33.05;;;3.80;99.90;;;;;;5055433;28;20555;-72
2022/01/26 02:53:13;;;;;;;76.95;32.45;;;3.80;99.90;;;;;;5038941;28;20495;-72
2022/01/26 02:55:43;;;;;;;74.43;33.60;;;;;;;;;;5056040;28;20375;-72
2022/01/26 03:03:40;;;;;;;70.43;31.67;;;;;;;;;;5055750;28;20355;-71
2022/01/26 03:06:12;;;;;;;70.15;32.25;;;;;;;;;;5055511;28;20040;-71
2022/01/26 03:08:43;;;;;;;73.38;32.83;;;3.80;99.90;;;;;;5055447;28;20044;-71
2022/01/26 03:11:12;;;;;;;76.07;32.95;;;;;;;;;;5055036;28;20047;-72
2022/01/26 03:13:43;;;;;;;70.93;30.58;;;;;;;;;;5055154;28;20048;-71
2022/01/26 03:16:36;;;;;;;70.20;30.75;;;;;;;;;;5055285;28;20123;-72
2022/01/26 03:19:14;;;;;;;67.93;30.50;;;;;;;;;;5054837;28;20044;-71
2022/01/26 03:22:15;;;;;;;77.00;33.22;;;;;;;;;;5055379;28;20047;-71
2022/01/26 03:30:07;;;;;;;78.70;31.77;;;3.90;99.90;;;;;;5074221;28;20048;-71
2022/01/26 03:35:40;;;;;;;77.30;30.15;;;;;;;;;;5074908;28;20507;-71
2022/01/26 03:37:56;;;;;;;80.07;30.63;;;;;;;;;;5074340;28;20053;-72
2022/01/26 03:40:30;;;;;;;74.00;30.65;;;3.80;99.90;;;;;;5074529;28;20051;-71
2022/01/26 03:42:57;;;;;;;71.60;31.10;;;;;;;;;;5101128;22;20116;-67
2022/01/26 03:45:23;;;;;;;72.28;29.08;;;;;;;;;;5094594;28;20046;-67
2022/01/26 03:47:49;;;;;;;72.95;29.33;;;;;;;;;;5094531;28;20281;-67
2022/01/26 03:50:15;;;;;;;66.80;28.52;;;;;;;;;;5094241;28;20027;-67
2022/01/26 03:52:40;;;;;;;73.15;30.30;;;4.00;99.90;;;;;;5094397;28;20050;-67
2022/01/26 03:55:06;;;;;;;71.63;27.10;;;3.90;99.90;;;;;;5094997;28;20139;-67
2022/01/26 03:57:32;;;;;;;75.30;29.25;;;;;;;;;;5094347;28;20036;-67
2022/01/26 03:59:58;;;;;;;70.43;28.20;;;;;;;;;;5094067;28;20040;-67
2022/01/26 04:02:24;;;;;;;74.63;31.10;;;;;;;;;;5094183;28;20100;-69
2022/01/26 04:04:56;;;;;;;69.57;28.85;;;;;;;;;;5094333;28;20055;-69
2022/01/26 04:07:22;;;;;;;70.03;28.05;;;;;;;;;;5094294;28;20104;-69
2022/01/26 04:09:48;;;;;;;77.13;30.55;;;;;;;;;;5093981;28;20040;-69
2022/01/26 04:12:14;;;;;;;73.85;28.48;;;;;;;;;;5077056;28;20565;-67
2022/01/26 04:14:44;;;;;;;70.38;28.55;;;;;;;;;;5094072;28;20471;-67
2022/01/26 04:17:10;;;;;;;71.82;28.30;;;;;;;;;;5077356;28;20039;-68
2022/01/26 04:19:38;;;;;;;73.97;28.85;;;3.90;99.90;;;;;;5094050;28;20043;-67
2022/01/26 04:24:38;;;;;;;71.72;28.33;;;;;;;;;;5094218;28;20039;-67
2022/01/26 04:27:16;;;;;;;68.70;29.77;;;;;;;;;;5093899;28;20085;-67
2022/01/26 04:29:41;;;;;;;73.68;29.17;;;3.90;99.90;;;;;;5093652;28;20047;-68
2022/01/26 04:32:08;;;;;;;83.10;29.55;;;;;;;;;;5093737;28;20035;-67
2022/01/26 04:34:35;;;;;;;75.05;26.98;;;;;;;;;;5093726;28;20043;-67
2022/01/26 04:37:12;;;;;;;72.70;27.17;;;3.90;99.90;;;;;;5093762;28;20073;-67
2022/01/26 04:39:45;;;;;;;73.53;27.77;;;;;;;;;;5111604;28;20036;-70
2022/01/26 04:42:17;;;;;;;63.28;24.35;;;3.70;99.90;;;;;;5093551;28;20400;-67
2022/01/26 04:44:50;;;;;;;69.18;25.30;;;;;;;;;;5093737;28;20054;-67
2022/01/26 04:47:16;;;;;;;79.93;28.77;;;;;;;;;;5076969;28;20039;-67
2022/01/26 04:49:41;;;;;;;76.63;26.67;;;3.60;99.90;;;;;;5093258;28;20050;-67
2022/01/26 04:52:07;;;;;;;83.93;27.48;;;;;;;;;;5093512;28;20043;-67
2022/01/26 04:54:33;;;;;;;72.28;27.05;;;;;;;;;;5093582;28;20062;-68
2022/01/26 04:56:59;;;;;;;74.57;28.65;;;;;;;;;;5093795;28;20035;-68
2022/01/26 04:59:25;;;;;;;74.43;28.20;;;;;;;;;;5093271;28;20235;-67
2022/01/26 05:01:51;;;;;;;74.72;28.45;;;;;;;;;;5111735;28;20051;-68
2022/01/26 05:04:17;;;;;;;72.85;29.13;;;;;;;;;;5111810;28;20088;-69
2022/01/26 05:06:43;;;;;;;64.38;26.17;;;;;;;;;;5112194;28;20043;-67
2022/01/26 05:09:09;;;;;;;66.10;26.85;;;;;;;;;;5093074;28;20125;-67
2022/01/26 05:11:38;;;;;;;63.38;25.95;;;3.70;99.90;;;;;;5111479;28;20036;-67
2022/01/26 05:14:05;;;;;;;63.85;26.30;;;;;;;;;;5093783;28;20174;-68
2022/01/26 05:16:31;;;;;;;70.45;28.30;;;;;;;;;;5093431;28;20516;-68
2022/01/26 05:18:57;;;;;;;73.45;28.17;;;;;;;;;;5093276;28;20039;-68
2022/01/26 05:21:24;;;;;;;72.95;28.80;;;3.70;99.90;;;;;;5111381;28;20040;-67
2022/01/26 05:23:50;;;;;;;66.97;25.65;;;;;;;;;;5093643;28;20404;-67
2022/01/26 05:26:16;;;;;;;69.28;27.27;;;;;;;;;;5111503;28;20047;-67
2022/01/26 05:28:42;;;;;;;74.05;27.67;;;;;;;;;;5111446;28;20465;-67
2022/01/26 05:31:08;;;;;;;71.47;28.17;;;;;;;;;;5092882;28;20096;-67
2022/01/26 05:33:34;;;;;;;69.90;27.25;;;3.60;99.90;;;;;;5093135;28;20075;-67
2022/01/26 05:36:00;;;;;;;70.10;26.00;;;;;;;;;;5093419;28;20075;-68
2022/01/26 05:38:26;;;;;;;75.38;26.50;;;;;;;;;;5093511;28;20038;-66
2022/01/26 05:40:54;;;;;;;68.13;26.48;;;3.70;99.90;;;;;;5111494;28;20036;-67
2022/01/26 05:43:20;;;;;;;71.78;26.70;;;;;;;;;;5093230;28;20385;-67
2022/01/26 05:45:50;;;;;;;67.45;26.40;;;;;;;;;;5111434;28;20062;-67
2022/01/26 05:48:16;;;;;;;69.53;25.73;;;;;;;;;;5093063;28;20055;-68
2022/01/26 05:50:53;;;;;;;73.57;27.80;;;;;;;;;;5110950;28;20084;-69
2022/01/26 05:53:21;;;;;;;74.55;28.45;;;;;;;;;;5094385;28;20047;-67
2022/01/26 05:55:48;;;;;;;67.55;26.17;;;;;;;;;;5097140;28;20043;-67
2022/01/26 05:58:14;;;;;;;71.78;24.20;;;;;;;;;;5115103;28;20093;-69
2022/01/26 06:00:40;;;;;;;66.25;27.50;;;;;;;;;;5096648;28;20043;-69
2022/01/26 06:03:06;;;;;;;70.28;26.92;;;;;;;;;;5114759;28;20455;-67
2022/01/26 06:05:32;;;;;;;67.78;27.13;;;;;;;;;;5114919;28;20088;-67
2022/01/26 06:07:58;;;;;;;77.38;28.42;;;;;;;;;;5096559;28;20492;-67
2022/01/26 06:10:24;;;;;;;71.13;26.08;;;;;;;;;;5096386;28;20130;-67
2022/01/26 06:12:50;;;;;;;72.53;29.55;;;;;;;;;;5079564;28;20044;-68
2022/01/26 06:15:15;;;;;;;73.38;28.50;;;3.70;99.90;;;;;;5096654;28;20036;-67
2022/01/26 06:17:41;;;;;;;72.03;28.13;;;;;;;;;;5079693;28;20039;-68
2022/01/26 06:20:08;;;;;;;79.68;28.15;;;3.50;99.90;;;;;;5095876;28;20042;-70
2022/01/26 06:22:34;;;;;;;79.78;31.05;;;;;;;;;;5079136;28;20049;-70
2022/01/26 06:25:05;;;;;;;78.13;29.88;;;;;;;;;;5114461;28;20043;-67
2022/01/26 06:27:32;;;;;;;78.63;29.90;;;3.80;99.90;;;;;;5096234;28;20617;-67
2022/01/26 06:29:58;;;;;;;78.75;28.92;;;;;;;;;;5095740;28;20118;-67
2022/01/26 06:32:24;;;;;;;75.45;30.38;;;;;;;;;;5114024;28;20122;-67
2022/01/26 06:34:50;;;;;;;83.35;30.45;;;;;;;;;;5096022;28;20084;-67
2022/01/26 06:37:18;;;;;;;80.13;29.35;;;;;;;;;;5114395;28;20035;-67
2022/01/26 06:39:44;;;;;;;75.05;29.20;;;;;;;;;;5095718;28;20054;-67
2022/01/26 06:42:15;;;;;;;78.65;29.58;;;3.80;99.90;;;;;;5095685;28;20082;-67
2022/01/26 06:44:57;;;;;;;74.57;29.70;;;3.70;99.90;;;;;;5095786;28;20492;-68
2022/01/26 06:49:52;;;;;;;75.28;29.27;;;3.80;99.90;;;;;;5095320;28;20126;-67
2022/01/26 06:52:18;;;;;;;80.20;30.55;;;;;;;;;;5095473;28;20131;-68
2022/01/26 06:54:44;;;;;;;86.63;34.13;;;3.70;99.90;;;;;;5095802;28;20489;-68
2022/01/26 06:57:10;;;;;;;83.38;33.63;;;;;;;;;;5113873;28;20035;-69
2022/01/26 06:59:35;;;;;;;81.18;29.75;;;;;;;;;;5090523;28;20134;-70
2022/01/26 07:02:02;;;;;;;79.78;32.30;;;;;;;;;;5084035;28;20070;-65
2022/01/26 07:04:28;;;;;;;79.05;32.05;;;;;;;;;;5091266;28;20054;-68
2022/01/26 07:06:53;;;;;;;82.28;32.25;;;;;;;;;;5092159;28;20357;-67
2022/01/26 07:09:19;;;;;;;81.72;30.80;;;;;;;;;;5092062;28;20123;-67
2022/01/26 07:11:46;;;;;;;79.28;31.67;;;;;;;;;;5091990;28;20493;-68
2022/01/26 07:14:21;;;;;;;80.95;33.58;;;;;;;;;;5092484;28;20051;-67
2022/01/26 07:22:17;;;;;;;92.20;34.83;;;;;;;;;;5092000;28;20082;-67
2022/01/26 07:24:43;;;;;;;99.20;40.13;;;;;;;;;;5091738;28;20044;-69
2022/01/26 07:27:10;;;;;;;99.55;38.78;;;;;;;;;;5074657;28;20126;-67
2022/01/26 07:29:36;;;;;;;105.47;40.70;;;;;;;;;;5083307;28;20040;-68
2022/01/26 07:32:05;;;;;;;104.20;39.35;;;;;;;;;;5101148;28;20050;-68
2022/01/26 07:34:31;;;;;;;99.15;40.80;;;;;;;;;;5094261;28;20097;-68
2022/01/26 07:37:02;;;;;;;101.38;39.30;;;;;;;;;;5094282;28;20067;-67
2022/01/26 07:40:10;;;;;;;105.55;41.78;;;4.00;99.90;;;;;;5112306;28;20039;-68
2022/01/26 07:42:17;;;;;;;102.90;39.70;;;;;;;;;;5086374;28;20097;-68
2022/01/26 07:44:43;;;;;;;99.40;39.08;;;;;;;;;;5112999;28;20435;-67
2022/01/26 07:47:11;;;;;;;105.07;42.35;;;;;;;;;;5094849;28;20082;-67
2022/01/26 07:49:37;;;;;;;98.57;39.95;;;;;;;;;;5094214;28;20051;-66
2022/01/26 07:52:03;;;;;;;99.82;40.85;;;;;;;;;;5094284;28;20419;-66
2022/01/26 07:54:32;;;;;;;105.50;41.25;;;;;;;;;;5094700;28;20400;-65
2022/01/26 07:56:57;;;;;;;108.18;42.13;;;4.10;99.90;;;;;;5077458;28;20460;-65
2022/01/26 07:59:23;;;;;;;103.90;40.88;;;;;;;;;;5112460;28;20059;-66
2022/01/26 08:01:49;;;;;;;104.55;41.15;;;;;;;;;;5094219;28;20036;-66
2022/01/26 08:04:15;;;;;;;98.38;39.67;;;;;;;;;;5094273;28;20439;-66
2022/01/26 08:06:41;;;;;;;98.22;39.83;;;;;;;;;;5109090;28;20032;-67
2022/01/26 08:09:07;;;;;;;111.15;40.00;;;4.10;99.90;;;;;;5082642;28;20028;-67
2022/01/26 08:11:32;;;;;;;92.47;38.08;;;;;;;;;;5085225;28;20057;-67
2022/01/26 08:13:58;;;;;;;94.80;37.90;;;;;;;;;;5081484;28;20048;-68
2022/01/26 08:16:25;;;;;;;88.88;34.92;;;;;;;;;;5085318;28;20506;-70
2022/01/26 08:18:51;;;;;;;89.38;37.67;;;;;;;;;;5090598;28;20140;-71
2022/01/26 08:21:18;;;;;;;89.50;39.58;;;;;;;;;;5091010;28;20181;-74
2022/01/26 08:23:45;;;;;;;85.15;35.20;;;;;;;;;;5074187;28;20066;-72
2022/01/26 08:26:11;;;;;;;86.72;37.05;;;;;;;;;;5090910;28;20102;-75
2022/01/26 08:28:41;;;;;;;79.55;34.03;;;;;;;;;;5090789;28;20079;-76
2022/01/26 08:31:07;;;;;;;89.43;34.63;;;;;;;;;;5090898;28;20523;-72
2022/01/26 08:33:33;;;;;;;82.50;36.10;;;;;;;;;;5081847;28;20122;-75
2022/01/26 08:35:59;;;;;;;81.38;33.80;;;;;;;;;;5072130;28;20402;-72
2022/01/26 08:38:26;;;;;;;80.30;33.22;;;;;;;;;;5056942;28;20036;-75
2022/01/26 08:40:52;;;;;;;83.05;35.08;;;;;;;;;;5073328;28;20455;-71
2022/01/26 08:43:18;;;;;;;84.50;34.92;;;4.30;99.90;;;;;;5073518;28;20043;-72
2022/01/26 08:45:44;;;;;;;74.38;33.60;;;;;;;;;;5073463;28;20500;-73
2022/01/26 08:48:11;;;;;;;78.78;32.78;;;;;;;;;;5072984;28;20047;-70
2022/01/26 08:50:37;;;;;;;80.28;34.30;;;;;;;;;;5073373;28;20097;-73
2022/01/26 08:53:03;;;;;;;84.18;34.92;;;;;;;;;;5073490;28;20040;-71
2022/01/26 08:55:29;;;;;;;80.07;33.38;;;;;;;;;;5073274;28;20489;-71
2022/01/26 08:57:55;;;;;;;81.82;34.28;;;4.40;99.90;;;;;;5073365;28;20062;-70
2022/01/26 09:00:21;;;;;;;82.22;33.33;;;;;;;;;;5073348;28;20489;-70
2022/01/26 09:02:47;;;;;;;91.78;35.53;;;;;;;;;;5073241;28;20048;-71
2022/01/26 09:05:13;;;;;;;88.78;34.50;;;;;;;;;;5073508;28;20044;-72
2022/01/26 09:07:43;;;;;;;77.32;33.58;;;;;;;;;;5057280;28;20047;-73
2022/01/26 09:10:09;;;;;;;77.78;33.20;;;;;;;;;;5085288;28;20067;-71
2022/01/26 09:12:40;;;;;;;85.22;35.95;;;;;;;;;;5072831;28;20075;-75
2022/01/26 09:15:06;;;;;;;82.78;35.45;;;;;;;;;;5065158;28;20031;-73
2022/01/26 09:17:34;;;;;;;79.53;33.38;;;;;;;;;;5093298;28;20046;-72
2022/01/26 09:20:01;;;;;;;82.70;37.10;;;;;;;;;;5092948;28;20040;-75
2022/01/26 09:22:27;;;;;;;83.75;32.88;;;4.50;99.90;;;;;;5088892;28;20044;-72
2022/01/26 09:24:53;;;;;;;82.50;34.47;;;;;;;;;;5073220;28;20081;-72
2022/01/26 09:27:19;;;;;;;91.20;34.40;;;;;;;;;;5073014;28;20136;-72
2022/01/26 09:29:46;;;;;;;83.13;33.75;;;;;;;;;;5076418;28;20050;-72
2022/01/26 09:32:13;;;;;;;89.03;35.90;;;;;;;;;;5076998;28;20512;-72
2022/01/26 09:34:39;;;;;;;86.13;34.60;;;;;;;;;;5060314;28;20127;-74
2022/01/26 09:37:06;;;;;;;83.90;33.85;;;;;;;;;;5059814;28;20130;-75
2022/01/26 09:39:32;;;;;;;92.43;37.25;;;;;;;;;;5076486;28;20043;-72
2022/01/26 09:41:58;;;;;;;91.30;36.50;;;;;;;;;;5100662;22;20044;-73
2022/01/26 09:44:24;;;;;;;93.15;38.05;;;;;;;;;;5095997;28;20130;-72
2022/01/26 09:46:51;;;;;;;82.72;33.65;;;;;;;;;;5080427;28;20092;-73
2022/01/26 09:49:18;;;;;;;93.97;37.42;;;4.30;99.90;;;;;;5079956;28;20046;-72
2022/01/26 09:51:48;;;;;;;93.00;37.05;;;4.50;99.90;;;;;;5097376;28;20062;-72
2022/01/26 09:54:16;;;;;;;85.03;34.17;;;4.40;99.90;;;;;;5097107;28;20043;-74
2022/01/26 09:56:44;;;;;;;87.38;35.90;;;;;;;;;;5090553;28;20089;-73
2022/01/26 09:59:10;;;;;;;89.72;35.20;;;;;;;;;;5073117;28;20043;-73
2022/01/26 10:01:47;;;;;;;86.05;35.20;;;;;;;;;;5070575;28;20055;-72
2022/01/26 10:04:24;;;;;;;95.32;34.75;;;;;;;;;;5077959;28;20275;-72
2022/01/26 10:07:00;;;;;;;77.97;31.85;;;4.40;99.90;;;;;;5080014;28;20043;-72
2022/01/26 10:09:45;;;;;;;77.25;33.90;;;4.50;99.90;;;;;;5096218;28;20096;-71
2022/01/26 10:17:43;;;;;;;83.43;33.35;;;4.60;99.90;;;;;;5096952;28;20051;-71
2022/01/26 10:20:14;;;;;;;74.50;31.67;;;;;;;;;;5096473;28;20036;-71
2022/01/26 10:22:40;;;;;;;71.57;30.30;;;;;;;;;;5096693;28;20089;-71
2022/01/26 10:25:13;;;;;;;74.32;30.63;;;4.70;99.90;;;;;;5096698;28;20455;-71
2022/01/26 10:27:42;;;;;;;77.80;30.00;;;4.40;99.90;;;;;;5093033;28;20099;-71
2022/01/26 10:30:09;;;;;;;71.65;28.88;;;;;;;;;;5086131;28;20085;-71
2022/01/26 10:32:36;;;;;;;70.65;29.40;;;;;;;;;;5067936;28;20043;-71
2022/01/26 10:35:04;;;;;;;74.32;30.30;;;;;;;;;;5086586;28;20042;-69
2022/01/26 10:37:30;;;;;;;70.70;29.70;;;4.60;99.90;;;;;;5084112;28;20040;-69
2022/01/26 10:40:09;;;;;;;72.95;29.95;;;;;;;;;;5083850;28;20038;-69
2022/01/26 10:42:35;;;;;;;76.28;30.65;;;;;;;;;;5084304;28;20036;-69
2022/01/26 10:45:12;;;;;;;78.10;32.95;;;;;;;;;;5085718;28;20509;-69
2022/01/26 10:47:45;;;;;;;69.60;29.65;;;4.80;99.90;;;;;;5085451;28;20074;-69
2022/01/26 10:53:07;;;;;;;78.72;28.95;;;5.00;99.90;;;;;;5103194;28;20134;-70
2022/01/26 10:55:35;;;;;;;75.32;28.95;;;4.80;99.90;;;;;;5089266;28;20032;-70
2022/01/26 10:58:01;;;;;;;72.45;30.90;;;4.80;99.90;;;;;;5075581;28;20032;-70
2022/01/26 11:00:28;;;;;;;72.18;30.38;;;;;;;;;;5075379;28;20035;-70
2022/01/26 11:02:57;;;;;;;81.35;31.77;;;;;;;;;;5095288;28;20144;-70
2022/01/26 11:05:23;;;;;;;76.20;30.95;;;;;;;;;;5109651;28;20048;-71
2022/01/26 11:07:50;;;;;;;74.90;29.95;;;4.80;99.90;;;;;;5093903;28;20047;-71
2022/01/26 11:10:17;;;;;;;83.68;33.97;;;;;;;;;;5077931;28;20048;-71
2022/01/26 11:12:43;;;;;;;69.43;29.88;;;4.80;99.90;;;;;;5075116;28;20461;-71
2022/01/26 11:15:13;;;;;;;77.07;30.70;;;4.70;99.90;;;;;;5058499;28;20089;-72
2022/01/26 11:17:43;;;;;;;71.20;30.33;;;;;;;;;;5074978;28;20413;-72
2022/01/26 11:20:30;;;;;;;67.55;28.50;;;4.60;99.90;;;;;;5080241;28;20508;-71
2022/01/26 11:22:57;;;;;;;67.30;28.92;;;;;;;;;;5084994;28;20044;-72
2022/01/26 11:25:26;;;;;;;75.55;31.27;;;4.90;99.90;;;;;;5076210;28;20126;-71
2022/01/26 11:27:53;;;;;;;77.05;30.70;;;5.00;99.90;;;;;;5093044;28;20046;-72
2022/01/26 11:30:26;;;;;;;64.35;28.15;;;;;;;;;;5074685;28;20093;-71
2022/01/26 11:32:57;;;;;;;73.30;30.45;;;;;;;;;;5079739;28;20043;-71
2022/01/26 11:35:25;;;;;;;66.28;28.75;;;;;;;;;;5070080;28;20509;-70
2022/01/26 11:38:05;;;;;;;72.53;31.42;;;;;;;;;;5081247;28;20048;-71
2022/01/26 11:46:26;;;;;;;71.55;30.67;;;;;;;;;;5071598;28;20063;-72
2022/01/26 11:49:12;;;;;;;74.35;29.58;;;;;;;;;;5054372;28;20429;-70
2022/01/26 11:51:49;;;;;;;69.55;28.80;;;;;;;;;;5054383;28;20409;-71
2022/01/26 11:54:17;;;;;;;88.13;30.80;;;;;;;;;;5054806;28;20036;-71
2022/01/26 11:57:09;;;;;;;73.43;31.67;;;5.10;99.90;;;;;;5087434;28;20039;-70
2022/01/26 11:59:42;;;;;;;69.75;29.02;;;;;;;;;;5091303;28;20036;-71
2022/01/26 12:02:49;;;;;;;78.63;31.13;;;5.10;99.90;;;;;;5076758;28;20558;-70
2022/01/26 12:05:19;;;;;;;84.28;30.67;;;;;;;;;;5085801;28;20097;-70
2022/01/26 12:07:54;;;;;;;74.88;29.83;;;;;;;;;;5081177;28;20055;-71
2022/01/26 12:10:29;;;;;;;71.40;29.52;;;5.00;99.90;;;;;;5075355;28;20076;-71
2022/01/26 12:12:58;;;;;;;66.35;28.58;;;;;;;;;;5077921;28;20042;-72
2022/01/26 12:15:26;;;;;;;70.28;29.95;;;;;;;;;;5075792;28;20127;-71
2022/01/26 12:18:15;;;;;;;62.85;26.42;;;;;;;;;;5081094;28;20043;-71
2022/01/26 12:34:36;;;;;;;61.47;25.27;;;;;;;;;;5091707;28;20051;-71
2022/01/26 12:37:11;;;;;;;63.38;26.20;;;;;;;;;;5094232;28;20108;-71
2022/01/26 12:43:03;;;;;;;67.05;28.58;;;;;;;;;;5091561;28;20044;-70
2022/01/26 12:45:24;;;;;;;57.08;25.88;;;5.30;99.90;;;;;;5093558;28;20405;-70
2022/01/26 12:47:51;;;;;;;63.70;26.20;;;;;;;;;;5090848;28;20035;-70
2022/01/26 12:50:17;;;;;;;70.22;29.02;;;;;;;;;;5093890;28;20128;-70
2022/01/26 12:52:50;;;;;;;57.83;26.67;;;;;;;;;;5091232;28;20078;-73
2022/01/26 12:55:23;;;;;;;67.55;26.90;;;5.50;99.90;;;;;;5073422;28;20439;-69
2022/01/26 12:57:49;;;;;;;65.30;27.42;;;;;;;;;;5077293;28;20494;-70
2022/01/26 13:00:16;;;;;;;66.82;26.33;;;5.40;99.90;;;;;;5084946;28;20035;-70
2022/01/26 13:02:43;;;;;;;62.70;26.65;;;5.60;99.90;;;;;;5095963;28;20039;-73
2022/01/26 13:05:09;;;;;;;59.70;25.88;;;5.70;99.90;;;;;;5095751;28;20043;-71
2022/01/26 13:07:35;;;;;;;64.68;27.08;;;;;;;;;;5097902;28;20046;-72
2022/01/26 13:10:01;;;;;;;59.30;25.73;;;;;;;;;;5096666;28;20514;-71
2022/01/26 13:12:31;;;;;;;62.53;25.90;;;;;;;;;;5097849;28;20043;-70
2022/01/26 13:15:21;;;;;;;64.50;26.58;;;;;;;;;;5097590;28;20032;-70
2022/01/26 13:17:57;;;;;;;71.35;29.00;;;;;;;;;;5097573;28;20035;-70
2022/01/26 13:23:20;;;;;;;63.72;24.90;;;5.70;99.90;;;;;;5097861;28;20051;-70
2022/01/26 13:38:57;;;;;;;67.78;25.27;;;;;;;;;;5097709;28;20047;-71
2022/01/26 13:41:54;;;;;;;59.35;25.48;;;;;;;;;;5086453;28;20039;-71
2022/01/26 13:49:49;;;;;;;60.05;25.33;;;;;;;;;;5095405;28;20397;-71
2022/01/26 14:00:13;;;;;;;60.70;24.00;;;;;;;;;;5095788;28;20043;-69
2022/01/26 14:02:38;;;;;;;57.00;23.88;;;5.50;99.90;;;;;;5096762;28;20079;-70
2022/01/26 14:05:05;;;;;;;57.97;25.08;;;;;;;;;;5080243;28;20071;-69
2022/01/26 14:07:31;;;;;;;55.17;24.55;;;;;;;;;;5097021;28;20099;-69
2022/01/26 14:09:57;;;;;;;57.47;24.10;;;5.60;99.90;;;;;;5096717;28;20501;-70
2022/01/26 14:12:24;;;;;;;55.20;22.33;;;5.60;99.90;;;;;;5080818;28;20040;-69
2022/01/26 14:14:54;;;;;;;55.25;22.83;;;;;;;;;;5096442;28;20412;-70
2022/01/26 14:17:34;;;;;;;54.60;23.20;;;;;;;;;;5096731;28;20071;-70
2022/01/26 14:27:34;;;;;;;58.83;25.65;;;5.70;99.90;;;;;;5096507;28;20043;-70
2022/01/26 14:30:14;;;;;;;56.53;24.60;;;5.70;99.90;;;;;;5079709;28;20040;-70
2022/01/26 14:35:44;;;;;;;55.85;25.00;;;;;;;;;;5096521;28;20044;-70
2022/01/26 14:39:38;;;;;;;61.05;25.25;;;5.70;99.90;;;;;;5096429;28;20044;-70
2022/01/26 14:54:46;;;;;;;63.88;26.00;;;;;;;;;;5095850;28;20564;-71
2022/01/26 15:12:03;;;;;;;60.92;25.83;;;;;;;;;;5084276;28;20054;-73
2022/01/26 15:19:49;;;;;;;60.83;25.05;;;;;;;;;;5086337;28;20051;-73
2022/01/26 15:50:54;;;;;;;56.00;24.42;;;;;;;;;;5094084;28;20046;-70
2022/01/26 16:17:27;;;;;;;52.42;22.27;;;;;;;;;;5092009;28;20485;-70
2022/01/26 16:38:49;;;;;;;53.25;21.75;;;;;;;;;;5073614;28;20044;-70
2022/01/26 16:52:35;;;;;;;53.05;22.02;;;6.00;99.90;;;;;;5073087;28;20105;-69
2022/01/26 17:34:37;;;;;;;49.03;20.60;;;;;;;;;;5071330;28;20132;-70
2022/01/26 18:15:14;;;;;;;46.08;19.42;;;6.10;99.90;;;;;;5094225;28;20127;-70
2022/01/26 18:33:23;;;;;;;44.50;19.10;;;;;;;;;;5075588;28;20130;-70
2022/01/26 18:46:53;;;;;;;40.97;19.15;;;;;;;;;;5075441;28;20051;-69
2022/01/26 18:49:20;;;;;;;47.78;20.08;;;;;;;;;;5075316;28;20531;-69
2022/01/26 18:51:55;;;;;;;44.60;19.88;;;;;;;;;;5093651;28;20064;-70
2022/01/26 18:54:29;;;;;;;38.70;18.10;;;6.30;99.90;;;;;;5075160;28;20044;-70
2022/01/26 18:56:56;;;;;;;45.35;19.73;;;;;;;;;;5075348;28;20055;-70
2022/01/26 18:59:22;;;;;;;44.60;20.27;;;6.40;99.90;;;;;;5067355;28;20045;-69
2022/01/26 19:01:49;;;;;;;40.88;19.08;;;;;;;;;;5054159;28;20398;-70
2022/01/26 19:04:17;;;;;;;35.67;18.23;;;;;;;;;;5063501;28;20036;-70
2022/01/26 19:06:49;;;;;;;36.85;17.83;;;;;;;;;;5069598;28;20035;-69
2022/01/26 19:09:21;;;;;;;42.42;18.67;;;;;;;;;;5065401;28;20058;-70
2022/01/26 19:11:47;;;;;;;41.58;18.67;;;;;;;;;;5070502;28;20044;-70
2022/01/26 19:14:13;;;;;;;36.42;17.20;;;;;;;;;;5071245;28;20513;-70
2022/01/26 19:16:48;;;;;;;39.63;18.13;;;6.50;99.90;;;;;;5070876;28;20028;-70
2022/01/26 19:22:06;;;;;;;39.30;18.90;;;;;;;;;;5062201;28;20044;-69
2022/01/26 19:24:54;;;;;;;39.75;18.75;;;;;;;;;;5066997;28;20048;-70
2022/01/26 19:27:30;;;;;;;43.38;19.08;;;;;;;;;;5046030;28;20079;-69
2022/01/26 19:32:48;;;;;;;43.45;20.27;;;;;;;;;;5070755;28;20127;-69
2022/01/26 19:46:13;;;;;;;40.05;17.83;;;;;;;;;;5071157;28;20631;-70
2022/01/26 19:51:24;;;;;;;42.08;18.92;;;;;;;;;;5069179;28;20051;-69
2022/01/26 19:53:49;;;;;;;45.08;19.45;;;6.50;99.90;;;;;;5062216;28;20044;-68
2022/01/26 19:56:15;;;;;;;40.08;17.60;;;;;;;;;;5089306;28;20043;-70
2022/01/26 19:58:41;;;;;;;39.10;17.67;;;;;;;;;;5068532;28;20477;-69
2022/01/26 20:01:07;;;;;;;41.30;17.60;;;;;;;;;;5033977;28;20129;-69
2022/01/26 20:03:34;;;;;;;45.97;21.40;;;6.40;99.90;;;;;;5058625;28;20090;-70
2022/01/26 20:06:02;;;;;;;39.92;17.83;;;;;;;;;;5059103;28;20037;-69
2022/01/26 20:11:24;;;;;;;51.67;20.30;;;;;;;;;;5050027;28;20055;-68
2022/01/26 20:13:50;;;;;;;47.90;19.33;;;;;;;;;;5050376;28;20573;-69
2022/01/26 20:16:18;;;;;;;50.67;19.63;;;;;;;;;;5050778;28;20048;-69
2022/01/26 20:18:44;;;;;;;55.33;20.08;;;;;;;;;;5056787;28;20040;-69
2022/01/26 20:21:10;;;;;;;46.95;19.13;;;;;;;;;;5070508;28;20036;-69
2022/01/26 20:23:37;;;;;;;41.92;18.23;;;;;;;;;;5069748;28;20051;-69
2022/01/26 20:26:07;;;;;;;47.53;20.33;;;6.70;99.90;;;;;;5059505;28;20515;-70
2022/01/26 20:28:36;;;;;;;42.17;18.35;;;;;;;;;;5062040;28;20048;-69
2022/01/26 20:31:04;;;;;;;48.45;18.90;;;;;;;;;;5069999;28;20063;-70
2022/01/26 20:33:29;;;;;;;42.95;18.95;;;6.60;99.90;;;;;;5070359;28;20105;-70
2022/01/26 20:35:55;;;;;;;45.05;18.40;;;;;;;;;;5053494;28;20579;-71